createdAt,value
2018-03-22T00:01:45.117Z,1.70
2018-03-22T00:04:13.491Z,1.80
2018-03-22T00:06:41.890Z,1.80
2018-03-22T00:09:10.923Z,1.90
2018-03-22T00:11:38.878Z,2.00
2018-03-22T00:14:07.371Z,2.00
2018-03-22T00:16:35.034Z,2.10
2018-03-22T00:19:02.648Z,2.20
2018-03-22T00:21:30.196Z,2.30
2018-03-22T00:23:57.756Z,2.30
2018-03-22T00:26:27.448Z,2.30
2018-03-22T00:28:55.921Z,2.30
2018-03-22T00:31:47.065Z,2.50
2018-03-22T00:34:15.131Z,2.30
2018-03-22T00:36:44.606Z,2.30
2018-03-22T00:39:17.502Z,2.20
2018-03-22T00:41:45.098Z,2.10
2018-03-22T00:44:13.396Z,1.90
2018-03-22T00:46:41.353Z,1.80
2018-03-22T00:49:09.702Z,1.70
2018-03-22T00:51:37.710Z,1.70
2018-03-22T00:54:05.673Z,1.70
2018-03-22T00:56:33.162Z,1.60
2018-03-22T00:59:00.689Z,1.50
2018-03-22T01:01:29.013Z,1.50
2018-03-22T01:03:56.545Z,1.40
2018-03-22T01:06:24.500Z,1.30
2018-03-22T01:08:52.105Z,1.40
2018-03-22T01:11:19.707Z,1.30
2018-03-22T01:13:47.270Z,1.40
2018-03-22T01:16:14.803Z,1.30
2018-03-22T01:18:42.351Z,1.30
2018-03-22T01:21:10.282Z,1.30
2018-03-22T01:23:48.643Z,1.40
2018-03-22T01:26:25.576Z,1.50
2018-03-22T01:28:54.783Z,1.40
2018-03-22T01:31:22.407Z,1.40
2018-03-22T01:33:50.450Z,1.70
2018-03-22T01:36:18.382Z,1.60
2018-03-22T01:38:46.875Z,1.70
2018-03-22T01:41:15.041Z,1.90
2018-03-22T01:43:48.155Z,1.90
2018-03-22T01:46:17.695Z,2.00
2018-03-22T01:48:45.765Z,2.10
2018-03-22T01:51:13.422Z,2.20
2018-03-22T01:53:41.417Z,2.10
2018-03-22T01:56:08.990Z,2.20
2018-03-22T01:58:37.018Z,2.20
2018-03-22T02:01:04.556Z,2.20
2018-03-22T02:03:33.362Z,2.30
2018-03-22T02:06:01.043Z,2.40
2018-03-22T02:08:28.564Z,2.30
2018-03-22T02:10:56.107Z,2.30
2018-03-22T02:13:23.688Z,2.30
2018-03-22T02:15:59.010Z,2.20
2018-03-22T02:18:26.540Z,2.30
2018-03-22T02:20:54.103Z,2.10
2018-03-22T02:23:22.449Z,2.10
2018-03-22T02:25:50.086Z,2.10
2018-03-22T02:28:18.044Z,2.00
2018-03-22T02:30:45.594Z,2.10
2018-03-22T02:33:13.218Z,2.00
2018-03-22T02:35:40.842Z,2.10
2018-03-22T02:38:08.793Z,2.10
2018-03-22T02:40:36.351Z,2.00
2018-03-22T02:43:04.235Z,2.00
2018-03-22T02:45:32.126Z,2.00
2018-03-22T02:47:59.612Z,2.00
2018-03-22T02:50:27.492Z,2.00
2018-03-22T02:52:55.744Z,2.00
2018-03-22T02:55:23.282Z,2.00
2018-03-22T02:57:50.755Z,2.10
2018-03-22T03:00:19.030Z,2.00
2018-03-22T03:02:47.239Z,2.10
2018-03-22T03:05:15.457Z,2.10
2018-03-22T03:07:42.924Z,2.20
2018-03-22T03:10:10.780Z,2.20
2018-03-22T03:12:39.003Z,2.20
2018-03-22T03:15:06.471Z,2.20
2018-03-22T03:17:34.705Z,2.20
2018-03-22T03:20:02.916Z,2.20
2018-03-22T03:22:31.182Z,2.20
2018-03-22T03:24:58.702Z,2.30
2018-03-22T03:27:26.952Z,2.30
2018-03-22T03:29:54.452Z,2.30
2018-03-22T03:32:21.895Z,2.30
2018-03-22T03:35:18.533Z,2.40
2018-03-22T03:37:45.976Z,2.40
2018-03-22T03:40:13.863Z,2.50
2018-03-22T03:42:41.746Z,2.50
2018-03-22T03:45:09.190Z,2.50
2018-03-22T03:47:36.656Z,2.50
2018-03-22T03:50:04.120Z,2.50
2018-03-22T03:52:31.583Z,2.60
2018-03-22T03:54:59.856Z,2.60
2018-03-22T03:57:28.128Z,2.50
2018-03-22T03:59:55.593Z,2.70
2018-03-22T04:02:24.749Z,2.70
2018-03-22T04:04:52.893Z,2.70
2018-03-22T04:10:38.136Z,2.80
2018-03-22T04:13:05.596Z,2.90
2018-03-22T04:15:33.085Z,3.00
2018-03-22T04:18:00.544Z,3.10
2018-03-22T04:20:28.035Z,3.10
2018-03-22T04:22:55.475Z,3.20
2018-03-22T04:25:22.931Z,3.30
2018-03-22T04:30:45.056Z,3.50
2018-03-22T04:33:18.839Z,3.40
2018-03-22T04:35:46.387Z,3.50
2018-03-22T04:38:48.174Z,3.70
2018-03-22T04:44:13.752Z,3.80
2018-03-22T04:46:47.751Z,3.80
2018-03-22T04:49:15.205Z,3.90
2018-03-22T04:51:43.435Z,3.90
2018-03-22T04:54:10.984Z,4.00
2018-03-22T04:56:38.455Z,4.10
2018-03-22T04:59:05.895Z,4.10
2018-03-22T05:01:33.377Z,4.10
2018-03-22T05:04:00.804Z,4.20
2018-03-22T05:06:28.651Z,4.10
2018-03-22T05:08:56.103Z,4.10
2018-03-22T05:11:23.555Z,4.10
2018-03-22T05:13:57.960Z,4.10
2018-03-22T05:16:25.489Z,4.20
2018-03-22T05:19:16.592Z,4.20
2018-03-22T05:21:44.092Z,4.20
2018-03-22T05:24:12.309Z,4.30
2018-03-22T05:26:40.518Z,4.30
2018-03-22T05:29:09.021Z,4.30
2018-03-22T05:31:36.488Z,4.30
2018-03-22T05:34:03.998Z,4.30
2018-03-22T05:36:47.591Z,4.30
2018-03-22T05:39:15.162Z,4.30
2018-03-22T05:41:42.623Z,4.30
2018-03-22T05:44:10.836Z,4.40
2018-03-22T05:46:40.451Z,4.40
2018-03-22T05:49:08.742Z,4.50
2018-03-22T05:51:36.948Z,4.50
2018-03-22T05:54:05.339Z,4.50
2018-03-22T05:56:46.492Z,4.50
2018-03-22T05:59:14.707Z,4.50
2018-03-22T06:01:42.183Z,4.50
2018-03-22T06:04:09.651Z,4.50
2018-03-22T06:06:37.118Z,4.60
2018-03-22T06:09:17.632Z,4.50
2018-03-22T06:11:45.501Z,4.60
2018-03-22T06:14:12.971Z,4.60
2018-03-22T06:16:40.444Z,4.70
2018-03-22T06:19:08.283Z,4.70
2018-03-22T06:21:36.140Z,4.80
2018-03-22T06:24:04.375Z,4.70
2018-03-22T06:26:31.897Z,4.70
2018-03-22T06:29:00.132Z,4.70
2018-03-22T06:31:27.606Z,4.60
2018-03-22T06:33:55.444Z,4.50
2018-03-22T06:36:22.887Z,4.40
2018-03-22T06:38:51.105Z,4.40
2018-03-22T06:41:18.554Z,4.30
2018-03-22T06:43:46.428Z,4.30
2018-03-22T06:46:14.643Z,4.10
2018-03-22T06:48:42.493Z,3.90
2018-03-22T06:51:10.716Z,3.70
2018-03-22T06:53:38.234Z,3.50
2018-03-22T06:56:05.719Z,3.30
2018-03-22T06:58:33.234Z,3.10
2018-03-22T07:01:00.725Z,2.90
2018-03-22T07:03:29.009Z,2.60
2018-03-22T07:05:57.226Z,2.50
2018-03-22T07:08:25.442Z,2.50
2018-03-22T07:13:46.895Z,2.30
2018-03-22T07:16:14.337Z,2.30
2018-03-22T07:18:42.566Z,2.20
2018-03-22T07:21:10.847Z,2.20
2018-03-22T07:23:38.308Z,2.20
2018-03-22T07:26:05.923Z,2.20
2018-03-22T07:28:33.761Z,2.10
2018-03-22T07:31:01.975Z,2.10
2018-03-22T07:33:29.423Z,2.10
2018-03-22T07:35:56.911Z,2.10
2018-03-22T07:38:24.385Z,2.00
2018-03-22T07:40:59.498Z,2.00
2018-03-22T07:43:32.849Z,2.00
2018-03-22T07:46:00.351Z,2.10
2018-03-22T07:48:28.207Z,2.20
2018-03-22T07:50:55.651Z,2.30
2018-03-22T07:53:23.116Z,2.30
2018-03-22T07:56:10.800Z,2.40
2018-03-22T07:58:38.795Z,2.40
2018-03-22T08:01:07.023Z,2.40
2018-03-22T08:06:37.816Z,2.50
2018-03-22T08:09:17.432Z,2.50
2018-03-22T08:11:45.388Z,2.60
2018-03-22T08:14:13.635Z,2.40
2018-03-22T08:16:41.881Z,2.40
2018-03-22T08:19:09.730Z,2.40
2018-03-22T08:21:37.267Z,2.40
2018-03-22T08:24:08.658Z,2.40
2018-03-22T08:26:36.171Z,2.40
2018-03-22T08:29:03.654Z,2.40
2018-03-22T08:31:31.133Z,2.50
2018-03-22T08:33:58.580Z,2.60
2018-03-22T08:36:35.595Z,2.60
2018-03-22T08:39:04.603Z,2.70
2018-03-22T08:44:20.603Z,2.80
2018-03-22T08:46:48.051Z,2.90
2018-03-22T08:49:15.917Z,3.00
2018-03-22T08:51:44.151Z,3.20
2018-03-22T08:54:11.623Z,3.20
2018-03-22T08:56:39.078Z,3.30
2018-03-22T08:59:17.177Z,3.40
2018-03-22T09:01:45.038Z,3.30
2018-03-22T09:04:12.934Z,3.40
2018-03-22T09:09:46.802Z,3.80
2018-03-22T09:18:11.957Z,4.20
2018-03-22T09:20:39.428Z,4.20
2018-03-22T09:23:07.731Z,4.20
2018-03-22T09:28:33.641Z,4.00
2018-03-22T09:31:01.091Z,4.20
2018-03-22T09:33:28.567Z,4.20
2018-03-22T09:35:56.034Z,4.30
2018-03-22T09:38:23.488Z,4.40
2018-03-22T09:41:17.367Z,4.40
2018-03-22T09:43:45.621Z,4.50
2018-03-22T09:46:17.723Z,4.40
2018-03-22T09:48:45.214Z,4.40
2018-03-22T09:51:19.903Z,4.50
2018-03-22T09:53:50.740Z,4.50
2018-03-22T09:56:38.272Z,4.50
2018-03-22T09:59:05.716Z,4.50
2018-03-22T10:01:47.513Z,4.50
2018-03-22T10:04:15.508Z,4.60
2018-03-22T10:06:42.928Z,4.60
2018-03-22T10:09:10.367Z,4.60
2018-03-22T10:11:37.829Z,4.70
2018-03-22T10:14:05.295Z,4.80
2018-03-22T10:16:32.781Z,4.80
2018-03-22T10:19:00.219Z,4.80
2018-03-22T10:21:27.679Z,4.90
2018-03-22T10:23:55.148Z,4.90
2018-03-22T10:26:22.591Z,4.90
2018-03-22T10:28:50.842Z,4.90
2018-03-22T10:37:24.537Z,5.00
2018-03-22T10:42:55.188Z,5.00
2018-03-22T10:45:22.642Z,5.00
2018-03-22T10:47:50.096Z,5.00
2018-03-22T10:50:17.536Z,5.20
2018-03-22T10:52:49.004Z,5.20
2018-03-22T10:55:16.563Z,5.10
2018-03-22T10:57:44.412Z,5.00
2018-03-22T11:06:19.781Z,5.10
2018-03-22T11:08:47.987Z,5.10
2018-03-22T11:11:15.825Z,5.10
2018-03-22T11:13:49.821Z,5.10
2018-03-22T11:16:17.259Z,5.10
2018-03-22T11:18:44.707Z,5.10
2018-03-22T11:21:12.923Z,5.20
2018-03-22T11:23:48.176Z,5.20
2018-03-22T11:26:15.641Z,5.30
2018-03-22T11:28:43.114Z,5.30
2018-03-22T11:31:10.607Z,5.30
2018-03-22T11:33:38.479Z,5.30
2018-03-22T11:36:05.953Z,5.30
2018-03-22T11:38:33.423Z,5.30
2018-03-22T11:41:01.695Z,5.40
2018-03-22T11:43:29.154Z,5.50
2018-03-22T11:45:56.644Z,5.60
2018-03-22T11:48:24.112Z,5.60
2018-03-22T11:51:17.597Z,5.70
2018-03-22T11:53:45.117Z,5.80
2018-03-22T11:56:12.516Z,5.70
2018-03-22T11:58:39.983Z,5.70
2018-03-22T12:04:00.312Z,5.90
2018-03-22T12:06:27.780Z,6.00
2018-03-22T12:08:55.225Z,6.00
2018-03-22T12:11:23.440Z,5.90
2018-03-22T12:14:03.832Z,5.90
2018-03-22T12:16:31.701Z,5.80
2018-03-22T12:22:02.611Z,5.90
2018-03-22T12:24:30.547Z,6.00
2018-03-22T12:26:57.935Z,6.00
2018-03-22T12:29:36.195Z,6.00
2018-03-22T12:32:03.810Z,6.00
2018-03-22T12:34:31.259Z,6.00
2018-03-22T12:40:00.112Z,6.00
2018-03-22T12:42:27.577Z,6.00
2018-03-22T12:44:55.008Z,6.10
2018-03-22T12:47:22.856Z,6.10
2018-03-22T12:49:50.298Z,6.20
2018-03-22T12:52:20.542Z,6.20
2018-03-22T13:00:45.052Z,6.20
2018-03-22T13:03:13.274Z,6.20
2018-03-22T13:05:48.214Z,6.40
2018-03-22T13:08:15.692Z,6.50
2018-03-22T13:10:43.135Z,6.40
2018-03-22T13:21:07.155Z,6.40
2018-03-22T13:23:34.637Z,6.40
2018-03-22T13:28:36.000Z,6.30
2018-03-22T13:31:18.381Z,6.40
2018-03-22T13:33:46.729Z,6.30
2018-03-22T13:36:14.181Z,6.30
2018-03-22T13:38:41.622Z,6.30
2018-03-22T13:41:12.118Z,6.40
2018-03-22T13:43:47.584Z,6.40
2018-03-22T13:46:15.800Z,6.40
2018-03-22T13:48:44.036Z,6.50
2018-03-22T13:51:12.325Z,6.50
2018-03-22T13:53:39.781Z,6.50
2018-03-22T14:03:13.160Z,6.50
2018-03-22T14:05:40.783Z,6.50
2018-03-22T14:08:08.246Z,6.40
2018-03-22T14:10:47.841Z,6.50
2018-03-22T14:13:18.706Z,6.50
2018-03-22T14:35:35.511Z,6.40
2018-03-22T14:38:03.388Z,6.40
2018-03-22T14:40:30.843Z,6.40
2018-03-22T14:42:58.317Z,6.50
2018-03-22T14:45:25.766Z,6.70
2018-03-22T14:47:53.615Z,7.00
2018-03-22T14:50:21.087Z,7.20
2018-03-22T14:52:48.545Z,7.50
2018-03-22T14:55:16.010Z,7.40
2018-03-22T14:58:03.661Z,7.30
2018-03-22T15:00:31.169Z,7.30
2018-03-22T15:03:12.509Z,7.30
2018-03-22T15:05:46.881Z,7.20
2018-03-22T15:08:14.504Z,7.10
2018-03-22T15:10:42.726Z,7.20
2018-03-22T15:13:10.212Z,7.20
2018-03-22T15:15:37.680Z,7.30
2018-03-22T15:18:05.230Z,7.40
2018-03-22T15:20:33.078Z,7.50
2018-03-22T15:23:00.538Z,7.50
2018-03-22T15:28:40.882Z,7.50
2018-03-22T15:31:08.921Z,7.40
2018-03-22T15:33:36.392Z,7.30
2018-03-22T15:38:42.190Z,7.30
2018-03-22T15:41:10.398Z,7.30
2018-03-22T15:43:37.907Z,7.30
2018-03-22T15:46:11.408Z,7.30
2018-03-22T15:48:38.938Z,7.30
2018-03-22T15:51:06.684Z,7.30
2018-03-22T15:53:34.208Z,7.40
2018-03-22T15:56:01.674Z,7.40
2018-03-22T15:58:29.194Z,7.40
2018-03-22T16:00:56.667Z,7.40
2018-03-22T16:03:24.118Z,7.40
2018-03-22T16:05:51.862Z,7.40
2018-03-22T16:08:19.503Z,7.40
2018-03-22T16:10:49.165Z,7.40
2018-03-22T16:13:17.937Z,7.40
2018-03-22T16:15:45.396Z,7.40
2018-03-22T16:18:13.634Z,7.40
2018-03-22T16:20:41.099Z,7.50
2018-03-22T16:23:08.565Z,7.50
2018-03-22T16:25:36.028Z,7.40
2018-03-22T16:28:20.079Z,7.40
2018-03-22T16:30:47.608Z,7.40
2018-03-22T16:33:15.060Z,7.40
2018-03-22T16:35:42.558Z,7.30
2018-03-22T16:38:10.016Z,7.30
2018-03-22T16:40:46.776Z,7.20
2018-03-22T16:43:15.001Z,7.20
2018-03-22T16:45:42.852Z,7.20
2018-03-22T16:48:10.721Z,7.20
2018-03-22T16:50:38.210Z,7.10
2018-03-22T16:55:58.663Z,7.00
2018-03-22T16:58:29.446Z,7.00
2018-03-22T17:01:12.762Z,7.00
2018-03-22T17:03:40.276Z,7.00
2018-03-22T17:06:07.778Z,7.00
2018-03-22T17:08:36.043Z,6.90
2018-03-22T17:11:03.503Z,6.90
2018-03-22T17:13:31.739Z,6.80
2018-03-22T17:16:02.301Z,6.80
2018-03-22T17:18:50.499Z,6.80
2018-03-22T17:21:18.760Z,6.70
2018-03-22T17:23:49.633Z,6.70
2018-03-22T17:26:18.131Z,6.70
2018-03-22T17:28:49.911Z,6.70
2018-03-22T17:31:17.428Z,6.80
2018-03-22T17:33:48.197Z,6.80
2018-03-22T17:39:54.409Z,6.70
2018-03-22T17:42:21.873Z,6.80
2018-03-22T17:44:49.745Z,6.80
2018-03-22T17:47:37.195Z,6.80
2018-03-22T17:50:05.407Z,6.80
2018-03-22T17:52:49.618Z,6.70
2018-03-22T17:55:17.862Z,6.70
2018-03-22T18:00:21.324Z,6.70
2018-03-22T18:02:48.788Z,6.70
2018-03-22T18:05:17.673Z,6.80
2018-03-22T18:07:45.195Z,6.70
2018-03-22T18:10:13.050Z,6.80
2018-03-22T18:15:44.030Z,6.80
2018-03-22T18:18:30.644Z,6.80
2018-03-22T18:20:58.100Z,6.80
2018-03-22T18:23:25.577Z,6.80
2018-03-22T18:25:53.120Z,6.80
2018-03-22T18:28:20.717Z,6.80
2018-03-22T18:30:48.972Z,6.80
2018-03-22T18:36:21.832Z,6.80
2018-03-22T18:38:51.023Z,6.80
2018-03-22T18:41:18.490Z,6.80
2018-03-22T18:43:46.744Z,6.80
2018-03-22T18:46:14.616Z,6.70
2018-03-22T18:51:48.043Z,6.80
2018-03-22T18:57:19.225Z,6.80
2018-03-22T19:00:08.312Z,6.80
2018-03-22T19:02:36.167Z,6.80
2018-03-22T19:05:05.028Z,6.80
2018-03-22T19:07:32.523Z,6.80
2018-03-22T19:13:03.942Z,6.80
2018-03-22T19:15:33.057Z,6.80
2018-03-22T19:18:20.505Z,6.80
2018-03-22T19:20:48.022Z,6.80
2018-03-22T19:26:20.968Z,6.80
2018-03-22T19:28:49.021Z,6.80
2018-03-22T19:52:09.723Z,6.70
2018-03-22T19:57:30.963Z,6.70
2018-03-22T19:59:58.491Z,6.70
2018-03-22T20:14:14.590Z,6.80
2018-03-22T20:19:45.197Z,6.70
2018-03-22T20:22:36.935Z,6.70
2018-03-22T20:34:07.501Z,6.70
2018-03-22T20:36:34.978Z,6.70
2018-03-22T20:42:16.534Z,6.70
2018-03-22T20:44:45.116Z,6.70
2018-03-22T20:47:12.658Z,6.70
2018-03-22T20:49:40.564Z,6.70
2018-03-22T20:52:08.528Z,6.70
2018-03-22T20:54:36.841Z,6.70
2018-03-22T20:57:06.928Z,6.70
2018-03-22T20:59:35.436Z,6.70
2018-03-22T21:02:20.382Z,6.70
2018-03-22T21:04:48.763Z,6.70
2018-03-22T21:07:16.776Z,6.70
2018-03-22T21:09:44.799Z,6.70
2018-03-22T21:12:12.719Z,6.70
2018-03-22T21:14:40.775Z,6.70
2018-03-22T21:17:08.751Z,6.70
2018-03-22T21:19:36.717Z,6.70
2018-03-22T21:22:12.319Z,6.70
2018-03-22T21:24:45.838Z,6.70
2018-03-22T21:27:19.876Z,6.70
2018-03-22T21:32:44.207Z,6.70
2018-03-22T21:41:06.892Z,6.70
2018-03-22T21:43:35.196Z,6.70
2018-03-22T21:46:02.666Z,6.70
2018-03-22T21:48:30.190Z,6.70
2018-03-22T21:51:00.335Z,6.70
2018-03-22T21:53:28.558Z,6.70
2018-03-22T21:58:50.326Z,6.60
2018-03-22T22:01:19.121Z,6.60
2018-03-22T22:03:46.668Z,6.70
2018-03-22T22:06:14.881Z,6.60
2018-03-22T22:08:42.337Z,6.60
2018-03-22T22:11:09.903Z,6.60
2018-03-22T22:13:38.172Z,6.60
2018-03-22T22:16:05.629Z,6.60
2018-03-22T22:18:33.448Z,6.60
2018-03-22T22:21:01.066Z,6.60
2018-03-22T22:23:28.596Z,6.60
2018-03-22T22:25:56.048Z,6.50
2018-03-22T22:28:47.092Z,6.70
2018-03-22T22:31:14.947Z,6.70
2018-03-22T22:33:42.492Z,6.70
2018-03-22T22:36:10.732Z,6.70
2018-03-22T22:38:38.175Z,6.60
2018-03-22T22:41:06.447Z,6.60
2018-03-22T22:46:36.331Z,6.60
2018-03-22T22:49:03.792Z,6.60
2018-03-22T22:51:31.624Z,6.60
2018-03-22T22:53:59.076Z,6.60
2018-03-22T22:56:32.682Z,6.70
2018-03-22T22:59:12.647Z,6.60
2018-03-22T23:01:40.264Z,6.60
2018-03-22T23:04:15.981Z,6.60
2018-03-22T23:06:43.421Z,6.60
2018-03-22T23:09:10.876Z,6.60
2018-03-22T23:11:38.416Z,6.60
2018-03-22T23:14:17.755Z,6.60
2018-03-22T23:16:46.869Z,6.60
2018-03-22T23:19:14.300Z,6.60
2018-03-22T23:21:41.750Z,6.60
2018-03-22T23:24:09.219Z,6.60
2018-03-22T23:26:36.718Z,6.60
2018-03-22T23:31:37.416Z,6.60
2018-03-22T23:34:04.874Z,6.60
2018-03-22T23:36:35.221Z,6.50
2018-03-22T23:39:03.499Z,6.60
2018-03-22T23:41:30.957Z,6.60
2018-03-22T23:43:58.403Z,6.50
2018-03-22T23:46:27.920Z,6.60
2018-03-22T23:48:56.998Z,6.60
2018-03-22T23:51:24.525Z,6.60
2018-03-22T23:53:51.987Z,6.60
2018-03-22T23:56:19.481Z,6.60
2018-03-22T23:58:46.929Z,6.60
